Time;durP1;ratioP1;P1;durP2;ratioP2;P2;SDS_P1;SDS_P2;PMS_P1;PMS_P2;Temp;Humidity;BMP_temperature;BMP_pressure;BME280_temperature;BME280_humidity;BME280_pressure;Samples;Min_cycle;Max_cycle;Signal;HPM_P1;HPM_P2
2023/09/08 00:00:05;;;;;;;0.28;0.28;;;25.60;53.90;;;26.22;39.22;95518.44;4994833;28;20254;-35
2023/09/08 00:02:32;;;;;;;0.30;0.30;;;25.60;54.00;;;26.23;38.79;95519.22;4994731;28;20231;-34
2023/09/08 00:04:59;;;;;;;0.60;0.60;;;25.60;53.90;;;26.23;39.19;95522.72;4994788;28;20226;-33
2023/09/08 00:07:26;;;;;;;0.50;0.50;;;25.60;54.00;;;26.20;38.77;95521.38;4994511;28;20202;-34
2023/09/08 00:09:53;;;;;;;0.35;0.35;;;25.60;53.90;;;26.16;38.74;95520.34;4994967;28;20195;-33
2023/09/08 00:12:21;;;;;;;0.35;0.35;;;25.60;53.80;;;26.14;38.87;95522.47;4993840;28;20216;-32
2023/09/08 00:14:48;;;;;;;0.30;0.30;;;25.50;53.80;;;26.10;39.11;95517.94;4994644;28;20197;-33
2023/09/08 00:17:15;;;;;;;0.40;0.40;;;25.50;53.80;;;26.06;38.72;95509.56;4994257;28;20241;-34
2023/09/08 00:19:42;;;;;;;0.40;0.40;;;25.60;53.90;;;26.03;39.25;95507.47;4994480;28;20203;-36
2023/09/08 00:22:09;;;;;;;0.50;0.50;;;25.50;53.90;;;26.03;39.25;95512.84;4994480;28;20201;-33
2023/09/08 00:24:36;;;;;;;0.35;0.35;;;25.50;53.90;;;26.01;39.06;95501.53;4994690;28;20192;-32
2023/09/08 00:27:03;;;;;;;0.30;0.30;;;25.50;54.00;;;26.01;39.37;95504.22;4994568;28;20238;-33
2023/09/08 00:29:30;;;;;;;0.40;0.40;;;25.50;54.00;;;26.00;39.36;95510.69;4994376;28;20203;-33
2023/09/08 00:31:57;;;;;;;0.30;0.30;;;25.40;54.00;;;25.97;39.28;95505.88;4994305;28;20217;-34
2023/09/08 00:34:25;;;;;;;0.40;0.40;;;25.40;54.00;;;25.95;39.46;95503.47;4993522;28;20202;-38
2023/09/08 00:36:52;;;;;;;0.32;0.32;;;25.40;54.00;;;25.93;39.58;95500.25;4994505;28;20284;-34
2023/09/08 00:39:19;;;;;;;0.38;0.38;;;25.40;54.10;;;25.92;39.32;95500.53;5009557;28;20213;-33
2023/09/08 00:41:46;;;;;;;0.30;0.30;;;25.30;54.00;;;25.88;39.18;95498.38;4994422;28;20303;-33
2023/09/08 00:44:13;;;;;;;0.40;0.40;;;25.30;54.10;;;25.86;39.68;95499.72;4994076;28;20220;-32
2023/09/08 00:46:40;;;;;;;0.30;0.30;;;25.30;54.20;;;25.84;39.23;95502.69;4994350;28;20277;-35
2023/09/08 00:49:08;;;;;;;0.30;0.30;;;25.30;54.10;;;25.80;39.41;95495.47;4977197;28;20196;-32
2023/09/08 00:51:37;;;;;;;0.50;0.50;;;25.30;54.20;;;25.77;39.43;95493.31;4994326;28;20191;-33
2023/09/08 00:54:06;;;;;;;0.30;0.30;;;25.30;54.20;;;25.71;39.73;95497.91;4993753;28;20275;-34
2023/09/08 00:56:37;;;;;;;0.40;0.40;;;25.20;54.20;;;25.67;39.50;95488.78;4993061;28;20571;-32
2023/09/08 00:59:04;;;;;;;0.30;0.30;;;25.20;54.30;;;25.64;39.55;95492.03;4993358;28;20209;-34
2023/09/08 01:01:31;;;;;;;0.38;0.38;;;25.20;54.30;;;25.61;39.49;95487.19;4977099;28;20519;-31
2023/09/08 01:03:59;;;;;;;0.50;0.50;;;25.20;54.40;;;25.57;39.50;95487.75;4993819;28;20207;-35
2023/09/08 01:06:27;;;;;;;0.40;0.40;;;25.10;54.30;;;25.57;39.88;95489.59;4992900;28;20210;-35
2023/09/08 01:08:55;;;;;;;0.30;0.30;;;25.10;54.40;;;25.55;39.79;95486.41;4992956;28;20600;-31
2023/09/08 01:11:24;;;;;;;0.30;0.30;;;25.10;54.50;;;25.53;39.86;95492.03;4994033;28;20269;-33
2023/09/08 01:13:51;;;;;;;0.30;0.30;;;25.10;54.50;;;25.53;39.85;95491.25;4992841;28;20611;-33
2023/09/08 01:16:18;;;;;;;0.45;0.45;;;25.00;54.60;;;25.50;40.00;95494.47;4992758;28;20200;-33
2023/09/08 01:18:48;;;;;;;0.30;0.30;;;25.00;54.60;;;25.48;40.00;95491.25;4993598;28;20682;-31
2023/09/08 01:21:39;;;;;;;0.30;0.30;;;25.00;54.70;;;25.45;39.90;95486.41;4993817;28;20684;-36
2023/09/08 01:24:46;;;;;;;0.30;0.30;;;25.00;54.90;;;25.44;39.94;95484.81;4993840;28;20188;-32
2023/09/08 01:27:15;;;;;;;0.30;0.30;;;25.00;55.00;;;25.41;40.14;95483.47;4993474;28;20283;-34
2023/09/08 01:29:44;;;;;;;0.30;0.30;;;24.90;54.80;;;25.42;39.94;95487.78;4992527;28;20220;-32
2023/09/08 01:32:11;;;;;;;0.30;0.30;;;24.90;54.90;;;25.41;40.35;95481.63;4976407;28;20626;-32
2023/09/08 01:34:40;;;;;;;0.30;0.30;;;24.90;55.00;;;25.40;39.97;95485.38;4992653;28;20289;-34
2023/09/08 01:37:08;;;;;;;0.60;0.60;;;24.90;55.00;;;25.38;40.06;95475.97;4992206;28;20224;-32
2023/09/08 01:39:35;;;;;;;0.30;0.30;;;24.90;55.00;;;25.37;39.92;95477.03;4993266;28;20287;-34
2023/09/08 01:42:03;;;;;;;0.35;0.35;;;24.90;55.10;;;25.36;40.28;95475.41;4993252;28;20201;-34
2023/09/08 01:44:30;;;;;;;0.30;0.30;;;24.90;55.00;;;25.35;40.48;95482.66;4993234;28;20514;-35
2023/09/08 01:46:58;;;;;;;0.50;0.50;;;24.90;55.20;;;25.35;40.43;95476.47;4993085;28;20268;-37
2023/09/08 01:49:25;;;;;;;0.40;0.40;;;24.90;55.20;;;25.37;40.53;95477.03;5008446;28;20199;-34
2023/09/08 01:51:52;;;;;;;0.30;0.30;;;24.90;55.30;;;25.38;40.32;95475.97;4993149;28;20290;-32
2023/09/08 01:54:20;;;;;;;0.30;0.30;;;24.90;55.30;;;25.39;40.49;95474.91;4993106;28;20188;-31
2023/09/08 01:56:47;;;;;;;0.30;0.30;;;24.90;55.40;;;25.40;40.47;95477.31;4993131;28;20242;-34
2023/09/08 01:59:14;;;;;;;0.32;0.32;;;24.90;55.50;;;25.42;40.75;95471.66;4992198;28;20207;-31
2023/09/08 02:01:41;;;;;;;0.30;0.30;;;24.90;55.50;;;25.46;40.46;95478.09;4992057;28;20723;-34
2023/09/08 02:04:08;;;;;;;0.30;0.30;;;24.90;55.60;;;25.47;40.69;95479.69;4992156;28;20651;-34
2023/09/08 02:06:35;;;;;;;0.50;0.50;;;24.90;55.60;;;25.48;40.59;95465.19;4992585;28;20230;-32
2023/09/08 02:09:03;;;;;;;0.30;0.30;;;24.90;55.60;;;25.51;40.76;95463.84;4992848;28;20207;-32
2023/09/08 02:11:31;;;;;;;0.45;0.45;;;25.00;55.70;;;25.51;40.73;95463.84;5008442;28;20203;-33
2023/09/08 02:13:59;;;;;;;0.30;0.30;;;25.00;55.70;;;25.52;40.77;95462.78;4991955;28;20262;-31
2023/09/08 02:16:26;;;;;;;0.50;0.50;;;25.00;55.70;;;25.54;40.79;95463.31;4991936;28;20302;-34
2023/09/08 02:18:53;;;;;;;0.40;0.40;;;25.00;55.70;;;25.53;40.69;95457.13;4992658;28;20292;-32
2023/09/08 02:21:21;;;;;;;0.32;0.32;;;25.00;55.70;;;25.57;40.95;95462.75;4992836;28;20253;-33
2023/09/08 02:23:48;;;;;;;0.40;0.40;;;25.10;55.80;;;25.56;41.04;95461.94;4993316;28;20200;-34
2023/09/08 02:26:15;;;;;;;0.45;0.45;;;25.00;55.70;;;25.57;41.04;95463.56;5007991;28;20226;-32
2023/09/08 02:28:43;;;;;;;0.40;0.40;;;25.10;55.70;;;25.59;40.82;95465.19;4991821;28;20210;-33
2023/09/08 02:31:11;;;;;;;0.30;0.30;;;25.10;55.70;;;25.60;40.84;95466.75;4992021;28;20201;-31
2023/09/08 02:33:39;;;;;;;0.30;0.30;;;25.10;55.70;;;25.59;41.07;95465.97;5007967;28;20201;-33
2023/09/08 02:36:06;;;;;;;0.38;0.38;;;25.20;55.90;;;25.61;40.89;95463.00;4991830;28;20707;-33
2023/09/08 02:38:37;;;;;;;0.28;0.28;;;25.20;56.00;;;25.59;40.98;95457.91;4991865;28;20200;-31
2023/09/08 02:41:05;;;;;;;0.30;0.30;;;25.20;55.80;;;25.61;41.18;95466.50;5007865;28;20216;-34
2023/09/08 02:43:32;;;;;;;0.30;0.30;;;25.20;55.80;;;25.61;41.04;95461.13;5007852;28;20205;-34
2023/09/08 02:45:59;;;;;;;0.30;0.30;;;25.20;55.70;;;25.60;41.21;95456.84;4992507;28;20298;-35
2023/09/08 02:48:26;;;;;;;0.35;0.35;;;25.20;55.80;;;25.62;41.10;95460.06;5007600;28;20192;-32
2023/09/08 02:50:53;;;;;;;0.40;0.40;;;25.20;55.80;;;25.61;41.09;95457.63;4991466;28;20212;-33
2023/09/08 02:53:21;;;;;;;0.40;0.40;;;25.20;55.70;;;25.60;40.76;95459.53;4991411;28;20656;-32
2023/09/08 02:55:49;;;;;;;0.40;0.40;;;25.20;55.70;;;25.60;40.74;95462.22;4992537;28;20663;-32
2023/09/08 02:58:16;;;;;;;0.30;0.30;;;25.20;55.70;;;25.58;40.97;95456.31;4992305;28;20211;-35
2023/09/08 03:00:43;;;;;;;0.30;0.30;;;25.20;55.70;;;25.57;40.82;95457.38;4991368;28;20206;-32
2023/09/08 03:03:10;;;;;;;0.45;0.45;;;25.20;55.70;;;25.57;40.98;95460.06;4992457;28;20230;-31
2023/09/08 03:05:37;;;;;;;0.40;0.40;;;25.10;55.60;;;25.56;40.73;95459.28;4991210;28;20269;-31
2023/09/08 03:08:05;;;;;;;0.30;0.30;;;25.10;55.60;;;25.56;40.79;95453.06;5007425;28;20205;-33
2023/09/08 03:10:36;;;;;;;0.20;0.20;;;25.10;55.60;;;25.55;40.86;95454.19;4991383;28;20231;-33
2023/09/08 03:13:04;;;;;;;0.40;0.40;;;25.10;55.70;;;25.54;41.04;95453.34;4992200;28;20605;-34
2023/09/08 03:15:31;;;;;;;0.50;0.50;;;25.10;55.80;;;25.52;40.58;95458.22;4992134;28;20292;-36
2023/09/08 03:17:59;;;;;;;0.30;0.30;;;25.10;55.80;;;25.53;41.12;95454.44;4995549;28;20235;-34
2023/09/08 03:20:28;;;;;;;0.50;0.50;;;25.10;55.80;;;25.50;41.17;95449.63;5010792;28;20202;-34
2023/09/08 03:22:55;;;;;;;0.35;0.35;;;25.10;55.80;;;25.48;41.23;95457.13;5010849;28;20207;-36
2023/09/08 03:25:22;;;;;;;0.30;0.30;;;25.10;55.80;;;25.46;41.02;95461.97;4995365;28;20239;-33
2023/09/08 03:27:49;;;;;;;0.30;0.30;;;25.10;55.90;;;25.45;40.77;95460.38;4995088;28;20542;-35
2023/09/08 03:30:16;;;;;;;0.30;0.30;;;25.10;55.90;;;25.43;41.25;95449.09;4995291;28;20570;-34
2023/09/08 03:32:43;;;;;;;0.30;0.30;;;25.00;55.80;;;25.42;41.01;95458.22;4995174;28;20259;-33
2023/09/08 03:35:11;;;;;;;0.28;0.28;;;25.00;55.90;;;25.40;40.88;95458.50;5010626;28;20201;-35
2023/09/08 03:37:38;;;;;;;0.40;0.40;;;25.00;55.70;;;25.39;40.97;95454.22;4978523;28;20212;-34
2023/09/08 03:40:07;;;;;;;0.30;0.30;;;25.00;56.00;;;25.39;41.33;95461.47;4994099;28;20211;-35
2023/09/08 03:42:34;;;;;;;0.30;0.30;;;25.00;56.00;;;25.40;41.32;95460.38;4995398;28;20327;-32
2023/09/08 03:45:02;;;;;;;0.30;0.30;;;25.00;56.10;;;25.39;41.27;95450.75;5010392;28;20635;-32
2023/09/08 03:47:30;;;;;;;0.30;0.30;;;25.00;56.10;;;25.40;41.05;95457.69;4994108;28;20224;-34
2023/09/08 03:49:57;;;;;;;0.40;0.40;;;25.00;56.20;;;25.39;41.44;95467.63;4993898;28;20235;-34
2023/09/08 03:52:25;;;;;;;0.32;0.32;;;25.00;56.30;;;25.39;41.57;95459.59;4994031;28;20269;-34
2023/09/08 03:54:52;;;;;;;0.40;0.40;;;25.00;56.30;;;25.40;41.67;95460.38;4994919;28;20227;-33
2023/09/08 03:57:19;;;;;;;0.40;0.40;;;25.00;56.40;;;25.40;41.58;95465.75;4995140;28;20214;-33
2023/09/08 03:59:46;;;;;;;0.20;0.20;;;25.00;56.30;;;25.40;41.39;95468.44;4993939;28;20648;-32
2023/09/08 04:02:13;;;;;;;0.40;0.40;;;25.00;56.30;;;25.40;41.41;95465.75;4994755;28;20643;-32
2023/09/08 04:04:40;;;;;;;0.30;0.30;;;25.00;56.40;;;25.40;41.57;95465.75;4995367;28;20208;-31
2023/09/08 04:07:08;;;;;;;0.40;0.40;;;25.00;56.40;;;25.38;41.58;95460.66;4993872;28;20282;-34
2023/09/08 04:09:35;;;;;;;0.30;0.30;;;25.00;56.40;;;25.40;41.78;95461.19;5009911;28;20216;-33
2023/09/08 04:12:02;;;;;;;0.32;0.32;;;25.00;56.50;;;25.40;41.64;95463.06;4994671;28;20597;-31
2023/09/08 04:14:30;;;;;;;0.50;0.50;;;25.00;56.40;;;25.40;41.59;95455.00;5010336;28;20199;-33
2023/09/08 04:16:57;;;;;;;0.30;0.30;;;25.00;56.40;;;25.40;41.58;95455.00;4993625;28;20244;-32
2023/09/08 04:19:24;;;;;;;0.40;0.40;;;25.00;56.40;;;25.39;41.58;95464.97;5009934;28;20206;-32
2023/09/08 04:21:51;;;;;;;0.35;0.35;;;25.00;57.70;;;25.39;41.88;95456.09;5009774;28;20213;-37
2023/09/08 04:24:19;;;;;;;0.25;0.25;;;25.00;56.40;;;25.38;41.77;95452.59;4993549;28;20216;-31
2023/09/08 04:26:47;;;;;;;0.30;0.30;;;25.00;56.50;;;25.38;41.61;95457.97;4992848;28;20664;-35
2023/09/08 04:29:14;;;;;;;0.40;0.40;;;25.00;56.50;;;25.38;41.59;95457.19;5009856;28;20235;-33
2023/09/08 04:31:41;;;;;;;0.30;0.30;;;25.00;56.60;;;25.37;41.81;95461.72;4994425;28;20261;-32
2023/09/08 04:34:08;;;;;;;0.30;0.30;;;25.00;56.60;;;25.37;41.76;95458.22;5009798;28;20297;-35
2023/09/08 04:36:35;;;;;;;0.30;0.30;;;25.00;56.60;;;25.35;41.53;95455.81;5010486;28;20215;-33
2023/09/08 04:39:02;;;;;;;0.30;0.30;;;25.00;56.60;;;25.36;41.71;95460.09;4993172;28;20287;-33
2023/09/08 04:41:29;;;;;;;0.30;0.30;;;25.00;56.60;;;25.35;41.70;95465.75;4993286;28;20202;-31
2023/09/08 04:43:58;;;;;;;0.30;0.30;;;25.00;56.60;;;25.36;41.47;95459.28;4994161;28;20647;-34
2023/09/08 04:46:25;;;;;;;0.30;0.30;;;25.00;56.60;;;25.35;41.80;95463.06;4993174;28;20332;-32
2023/09/08 04:48:52;;;;;;;0.28;0.28;;;25.00;56.60;;;25.34;41.92;95472.19;4993094;28;20201;-32
2023/09/08 04:51:21;;;;;;;0.30;0.30;;;25.00;56.60;;;25.34;41.92;95464.13;4993930;28;20205;-34
2023/09/08 04:53:49;;;;;;;0.40;0.40;;;25.00;56.70;;;25.33;41.73;95471.38;5009415;28;20208;-32
2023/09/08 04:56:16;;;;;;;0.50;0.50;;;25.00;56.70;;;25.33;41.76;95473.25;5009391;28;20215;-34
2023/09/08 04:58:44;;;;;;;0.40;0.40;;;25.00;56.60;;;25.32;41.73;95472.47;4992702;28;20203;-32
2023/09/08 05:01:12;;;;;;;0.30;0.30;;;25.00;56.70;;;25.32;41.85;95467.09;4993918;28;20241;-37
2023/09/08 05:03:39;;;;;;;0.32;0.32;;;25.00;56.70;;;25.32;41.63;95477.03;4992984;28;20204;-36
2023/09/08 05:06:07;;;;;;;0.30;0.30;;;25.00;56.80;;;25.32;41.72;95471.66;4992832;28;20204;-31
2023/09/08 05:08:35;;;;;;;0.30;0.30;;;24.90;56.80;;;25.32;42.05;95472.47;4992876;28;20538;-35
2023/09/08 05:11:03;;;;;;;0.38;0.38;;;25.00;56.90;;;25.32;42.02;95468.97;4976857;28;20215;-32
2023/09/08 05:13:31;;;;;;;0.30;0.30;;;25.00;56.90;;;25.31;42.13;95475.41;4977075;28;20219;-34
2023/09/08 05:16:10;;;;;;;0.30;0.30;;;25.00;56.80;;;25.32;42.01;95472.47;5009172;28;20293;-31
2023/09/08 05:18:42;;;;;;;0.25;0.25;;;25.00;57.00;;;25.30;42.19;95463.88;5009096;28;20259;-34
2023/09/08 05:21:09;;;;;;;0.50;0.50;;;25.00;56.90;;;25.31;42.18;95475.41;4992608;28;20239;-33
2023/09/08 05:23:37;;;;;;;0.40;0.40;;;25.00;57.00;;;25.30;41.94;95474.59;5008982;28;20300;-31
2023/09/08 05:26:04;;;;;;;0.25;0.25;;;25.00;56.90;;;25.30;42.22;95469.22;4992600;28;20381;-32
2023/09/08 05:28:33;;;;;;;0.30;0.30;;;24.90;56.90;;;25.30;42.05;95473.81;5008959;28;20200;-36
2023/09/08 05:31:05;;;;;;;0.30;0.30;;;24.90;56.90;;;25.29;42.16;95475.66;5008944;28;20208;-31
2023/09/08 05:33:33;;;;;;;0.35;0.35;;;25.00;57.10;;;25.31;42.20;95476.22;5009725;28;20205;-32
2023/09/08 05:36:00;;;;;;;0.50;0.50;;;25.00;57.10;;;25.31;42.32;95476.22;4976538;28;20215;-33
2023/09/08 05:38:28;;;;;;;0.40;0.40;;;25.00;57.10;;;25.31;42.46;95478.09;4991971;28;20769;-31
2023/09/08 05:40:56;;;;;;;0.40;0.40;;;25.00;57.10;;;25.31;42.07;95483.47;4991770;28;20642;-31
2023/09/08 05:43:26;;;;;;;0.40;0.40;;;24.90;57.00;;;25.31;42.64;95483.47;5008568;28;20219;-34
2023/09/08 05:45:54;;;;;;;0.30;0.30;;;25.00;57.20;;;25.30;42.42;95477.28;4992690;28;20610;-31
2023/09/08 05:48:21;;;;;;;0.20;0.20;;;25.00;57.20;;;25.30;42.80;95479.19;4993459;28;20223;-31
2023/09/08 05:50:48;;;;;;;0.30;0.30;;;25.00;57.20;;;25.30;42.56;95482.66;4976017;28;20302;-32
2023/09/08 05:53:15;;;;;;;0.32;0.32;;;25.00;57.20;;;25.30;42.45;95479.97;4992239;28;20213;-33
2023/09/08 05:55:44;;;;;;;0.20;0.20;;;25.00;57.20;;;25.31;42.64;95478.09;4992425;28;20659;-33
2023/09/08 05:58:11;;;;;;;0.30;0.30;;;25.00;57.20;;;25.31;42.37;95473.53;4992356;28;20203;-33
2023/09/08 06:00:38;;;;;;;0.30;0.30;;;25.00;57.20;;;25.30;42.42;95474.59;4992159;28;20195;-33
2023/09/08 06:03:05;;;;;;;0.45;0.45;;;25.00;57.20;;;25.31;42.34;95480.78;4993587;28;20232;-32
2023/09/08 06:05:33;;;;;;;0.40;0.40;;;25.00;57.20;;;25.30;42.67;95479.97;4992038;28;20266;-33
2023/09/08 06:08:00;;;;;;;0.30;0.30;;;25.00;57.30;;;25.31;42.32;95480.78;4993123;28;20673;-32
2023/09/08 06:10:38;;;;;;;0.32;0.32;;;25.00;57.30;;;25.31;42.38;95478.09;5008087;28;20193;-33
2023/09/08 06:13:07;;;;;;;0.30;0.30;;;25.00;57.20;;;25.31;42.40;95480.78;4992799;28;20216;-35
2023/09/08 06:15:35;;;;;;;0.25;0.25;;;25.00;57.30;;;25.31;42.72;95484.28;5008213;28;20281;-31
2023/09/08 06:18:03;;;;;;;0.30;0.30;;;25.00;57.40;;;25.32;42.50;95483.19;4992681;28;20241;-36
2023/09/08 06:20:30;;;;;;;0.30;0.30;;;25.00;57.40;;;25.32;42.86;95479.72;4992567;28;20539;-34
2023/09/08 06:22:58;;;;;;;0.35;0.35;;;25.00;57.40;;;25.32;42.53;95477.03;4992740;28;20552;-35
2023/09/08 06:25:28;;;;;;;0.50;0.50;;;25.00;57.40;;;25.32;42.42;95480.50;4991788;28;20207;-33
2023/09/08 06:27:55;;;;;;;0.40;0.40;;;25.00;57.50;;;25.32;42.66;95475.16;4992137;28;20367;-33
2023/09/08 06:30:22;;;;;;;0.35;0.35;;;25.00;57.50;;;25.34;42.65;95480.22;4992182;28;20202;-33
2023/09/08 06:32:49;;;;;;;0.30;0.30;;;25.00;57.50;;;25.33;42.60;95479.44;4991695;28;20300;-32
2023/09/08 06:35:17;;;;;;;0.30;0.30;;;25.00;57.50;;;25.34;42.75;95472.19;4991657;28;20227;-33
2023/09/08 06:37:44;;;;;;;0.30;0.30;;;25.00;57.50;;;25.34;42.73;95475.69;4992879;28;20679;-36
2023/09/08 06:40:12;;;;;;;0.30;0.30;;;25.00;58.80;;;25.36;42.76;95478.09;4991469;28;20270;-33
2023/09/08 06:42:39;;;;;;;0.63;0.63;;;25.00;57.60;;;25.35;42.65;95469.25;4991529;28;20213;-32
2023/09/08 06:45:13;;;;;;;0.35;0.35;;;25.10;57.60;;;25.36;42.80;95476.19;5007929;28;20201;-32
2023/09/08 06:47:40;;;;;;;0.30;0.30;;;25.10;57.70;;;25.38;42.59;95478.66;5007723;28;20230;-33
2023/09/08 06:50:07;;;;;;;0.40;0.40;;;25.10;57.50;;;25.37;42.80;95480.53;4992986;28;20201;-33
2023/09/08 06:52:34;;;;;;;0.30;0.30;;;25.00;57.50;;;25.37;42.85;95466.28;4996134;28;20188;-31
2023/09/08 06:55:02;;;;;;;0.40;0.40;;;25.10;57.60;;;25.39;42.57;95481.06;5011424;28;20717;-33
2023/09/08 06:57:30;;;;;;;0.30;0.30;;;25.10;57.60;;;25.39;42.64;95477.59;4979059;28;20212;-33
2023/09/08 06:59:57;;;;;;;0.30;0.30;;;25.00;57.50;;;25.41;42.88;95483.47;4994929;28;20649;-33
2023/09/08 07:02:24;;;;;;;0.30;0.30;;;25.10;57.60;;;25.40;42.60;95485.38;4995926;28;20205;-33
2023/09/08 07:04:51;;;;;;;0.30;0.30;;;25.10;57.60;;;25.39;42.53;95478.38;4994830;28;20203;-33
2023/09/08 07:07:20;;;;;;;0.35;0.35;;;25.10;57.60;;;25.43;42.39;95484.00;4995538;28;20236;-32
2023/09/08 07:09:48;;;;;;;0.30;0.30;;;25.10;57.60;;;25.43;42.84;95481.31;5011093;28;20200;-33
2023/09/08 07:12:15;;;;;;;0.30;0.30;;;25.10;57.60;;;25.44;42.83;95485.63;4994645;28;20196;-32
2023/09/08 07:14:43;;;;;;;0.30;0.30;;;25.10;57.60;;;25.44;42.99;95484.81;5010987;28;20200;-32
2023/09/08 07:17:10;;;;;;;0.30;0.30;;;25.10;57.70;;;25.44;42.90;95480.25;4994382;28;20248;-33
2023/09/08 07:19:38;;;;;;;0.30;0.30;;;25.10;57.60;;;25.46;43.01;95486.13;5010667;28;20265;-34
2023/09/08 07:22:06;;;;;;;0.30;0.30;;;25.10;57.60;;;25.47;42.68;95484.28;4994517;28;20206;-35
2023/09/08 07:24:33;;;;;;;0.30;0.30;;;25.10;57.60;;;25.47;42.59;95476.22;5011001;28;20212;-36
2023/09/08 07:27:01;;;;;;;0.40;0.40;;;25.20;57.70;;;25.48;42.86;95483.19;4994578;28;20690;-33
2023/09/08 07:29:29;;;;;;;0.30;0.30;;;25.20;57.80;;;25.49;42.63;95477.56;5011152;28;20229;-34
2023/09/08 07:31:56;;;;;;;0.30;0.30;;;25.10;57.60;;;25.50;42.63;95483.72;4995821;28;20203;-33
2023/09/08 07:34:23;;;;;;;0.40;0.40;;;25.20;57.60;;;25.51;42.75;95475.41;4994319;28;20203;-35
2023/09/08 07:36:51;;;;;;;0.30;0.30;;;25.20;57.70;;;25.53;42.49;95475.13;4978514;28;20214;-34
2023/09/08 07:39:18;;;;;;;0.50;0.50;;;25.20;57.60;;;25.53;42.53;95475.91;4994520;28;20204;-32
2023/09/08 07:41:46;;;;;;;0.30;0.30;;;25.20;57.60;;;25.54;42.60;95479.44;4994982;28;20196;-35
2023/09/08 07:44:13;;;;;;;0.30;0.30;;;25.20;57.50;;;25.56;42.48;95485.31;4994279;28;20243;-36
2023/09/08 07:46:40;;;;;;;0.30;0.30;;;25.20;57.60;;;25.56;42.83;95480.75;4994064;28;20204;-34
2023/09/08 07:49:07;;;;;;;0.30;0.30;;;25.20;57.50;;;25.58;42.58;95483.16;4995189;28;20224;-32
2023/09/08 07:51:34;;;;;;;0.30;0.30;;;25.20;57.50;;;25.60;42.68;95485.56;4995182;28;20205;-34
2023/09/08 07:54:03;;;;;;;0.30;0.30;;;25.30;57.60;;;25.61;42.46;95490.69;4995230;28;20225;-31
2023/09/08 07:56:30;;;;;;;0.30;0.30;;;25.30;57.50;;;25.62;42.71;95484.25;4995475;28;20207;-33
2023/09/08 07:58:57;;;;;;;0.30;0.30;;;25.30;57.50;;;25.63;42.66;95480.44;4994930;28;20303;-32
2023/09/08 08:01:25;;;;;;;0.30;0.30;;;25.30;57.40;;;25.65;42.02;95486.38;4994339;28;20632;-36
2023/09/08 08:03:52;;;;;;;0.30;0.30;;;25.30;57.40;;;25.65;42.31;95486.38;4993428;28;20198;-34
2023/09/08 08:06:19;;;;;;;0.22;0.22;;;25.30;57.40;;;25.68;42.53;95491.22;4994813;28;20227;-33
2023/09/08 08:08:46;;;;;;;0.35;0.35;;;25.30;57.40;;;25.67;42.40;95492.28;4994919;28;20222;-35
2023/09/08 08:11:16;;;;;;;0.30;0.30;;;25.30;57.30;;;25.68;42.40;95488.53;4994568;28;20283;-37
2023/09/08 08:13:43;;;;;;;0.30;0.30;;;25.30;57.30;;;25.70;42.27;95494.41;4994958;28;20201;-33
2023/09/08 08:16:11;;;;;;;0.30;0.30;;;25.40;57.40;;;25.71;42.37;95493.31;4994660;28;20633;-31
2023/09/08 08:18:38;;;;;;;0.30;0.30;;;25.40;57.30;;;25.74;42.44;95486.59;4993768;28;20261;-37
2023/09/08 08:21:06;;;;;;;0.40;0.40;;;25.40;58.60;;;25.73;42.32;95488.50;4994404;28;20266;-33
2023/09/08 08:23:33;;;;;;;0.30;0.30;;;25.40;57.30;;;25.76;42.46;95484.44;4993618;28;20210;-37
2023/09/08 08:26:01;;;;;;;0.28;0.28;;;25.40;57.30;;;25.77;42.21;95496.81;4994946;28;20235;-32
2023/09/08 08:28:28;;;;;;;0.30;0.30;;;25.40;57.30;;;25.79;42.30;95486.56;4994372;28;20305;-34
2023/09/08 08:30:56;;;;;;;0.20;0.20;;;25.40;57.30;;;25.79;42.59;95483.88;4993702;28;20279;-34
2023/09/08 08:33:25;;;;;;;0.40;0.40;;;25.40;57.20;;;25.81;42.41;95483.63;4994591;28;20189;-35
2023/09/08 08:35:53;;;;;;;0.30;0.30;;;25.40;57.10;;;25.82;42.26;95477.19;4994584;28;20193;-32
2023/09/08 08:38:20;;;;;;;0.30;0.30;;;25.40;57.00;;;25.84;42.07;95485.75;4994287;28;20286;-33
2023/09/08 08:40:47;;;;;;;0.50;0.50;;;25.40;56.90;;;25.85;41.78;95469.38;4994041;28;20206;-32
2023/09/08 08:43:15;;;;;;;0.30;0.30;;;25.50;56.90;;;25.85;41.89;95485.50;4994458;28;20343;-37
2023/09/08 08:45:43;;;;;;;0.22;0.22;;;25.40;56.70;;;25.88;42.03;95484.16;4993623;28;20254;-32
2023/09/08 08:48:12;;;;;;;0.20;0.20;;;25.50;56.80;;;25.89;41.80;95496.50;4994024;28;20228;-34
2023/09/08 08:50:43;;;;;;;0.30;0.30;;;25.50;56.70;;;25.91;41.92;95485.47;4993167;28;20674;-34
2023/09/08 08:53:12;;;;;;;0.20;0.20;;;25.50;57.90;;;25.92;41.69;95481.72;4994109;28;20203;-34
2023/09/08 08:55:40;;;;;;;0.30;0.30;;;25.50;56.50;;;25.93;41.66;95476.06;4994004;28;20220;-31
2023/09/08 08:58:07;;;;;;;0.30;0.30;;;25.50;56.30;;;25.93;41.28;95469.84;4994089;28;20294;-34
2023/09/08 09:00:36;;;;;;;0.20;0.20;;;25.60;56.40;;;25.96;41.39;95480.88;4994079;28;20225;-33
2023/09/08 09:03:06;;;;;;;0.40;0.40;;;25.50;56.20;;;25.97;41.60;95479.00;4994388;28;20182;-32
2023/09/08 09:05:42;;;;;;;0.40;0.40;;;25.50;56.10;;;25.99;41.10;95474.16;4994590;28;20185;-34
2023/09/08 09:08:17;;;;;;;0.30;0.30;;;25.60;56.10;;;25.99;41.55;95468.78;4993090;28;20231;-33
2023/09/08 09:10:44;;;;;;;0.35;0.35;;;25.60;56.00;;;26.01;41.07;95472.78;4993741;28;20192;-35
2023/09/08 09:13:11;;;;;;;0.40;0.40;;;25.60;56.00;;;26.01;40.95;95467.41;4993804;28;20214;-35
2023/09/08 09:15:38;;;;;;;0.30;0.30;;;25.60;55.90;;;26.03;41.01;95467.94;4993135;28;20251;-33
2023/09/08 09:18:06;;;;;;;0.40;0.40;;;25.60;57.00;;;26.07;40.93;95475.47;4992865;28;20290;-33
2023/09/08 09:20:34;;;;;;;0.30;0.30;;;25.60;55.70;;;26.08;40.68;95474.41;4993759;28;20234;-34
2023/09/08 09:23:01;;;;;;;0.30;0.30;;;25.60;55.50;;;26.10;40.62;95467.66;4993818;28;20205;-35
2023/09/08 09:25:31;;;;;;;0.30;0.30;;;25.70;55.40;;;26.10;40.41;95478.44;4993766;28;20648;-34
2023/09/08 09:28:03;;;;;;;0.30;0.30;;;25.70;55.40;;;26.13;40.31;95469.00;4993477;28;20272;-32
2023/09/08 09:30:51;;;;;;;0.20;0.20;;;25.60;55.00;;;26.12;40.62;95457.44;4993603;28;20187;-35
2023/09/08 09:33:19;;;;;;;0.30;0.30;;;25.70;55.10;;;26.14;40.32;95471.41;4994028;28;20273;-34
2023/09/08 09:35:54;;;;;;;0.40;0.40;;;25.70;55.30;;;26.15;40.45;95454.19;4993731;28;20209;-35
2023/09/08 09:38:22;;;;;;;0.30;0.30;;;25.70;55.10;;;26.18;40.15;95461.72;4993379;28;20213;-32
2023/09/08 09:40:49;;;;;;;0.40;0.40;;;25.70;55.10;;;26.19;40.35;95457.13;4993282;28;20205;-32
2023/09/08 09:43:22;;;;;;;0.40;0.40;;;25.70;55.20;;;26.20;40.25;95469.50;4993308;28;20202;-32
2023/09/08 09:45:49;;;;;;;0.30;0.30;;;25.70;55.20;;;26.21;40.05;95465.72;4993775;28;20258;-33
2023/09/08 09:48:20;;;;;;;0.30;0.30;;;25.80;55.20;;;26.22;40.25;95461.97;4993256;28;20224;-33
2023/09/08 09:50:47;;;;;;;0.30;0.30;;;25.70;55.10;;;26.23;40.36;95465.44;4993259;28;20687;-32
2023/09/08 09:53:16;;;;;;;0.32;0.32;;;25.70;55.10;;;26.23;40.39;95468.94;4992869;28;20191;-38
2023/09/08 09:55:45;;;;;;;0.30;0.30;;;25.80;55.30;;;26.24;40.41;95454.41;4993443;28;20248;-36
2023/09/08 09:58:14;;;;;;;0.30;0.30;;;25.80;55.20;;;26.24;40.57;95453.63;4993241;28;20312;-37
2023/09/08 10:00:41;;;;;;;0.20;0.20;;;25.80;55.20;;;26.26;40.45;95462.22;4992105;28;20703;-34
2023/09/08 10:03:10;;;;;;;0.40;0.40;;;25.80;55.20;;;26.27;40.30;95456.56;4992484;28;20298;-35
2023/09/08 10:05:38;;;;;;;0.30;0.30;;;25.80;55.20;;;26.29;40.41;95458.94;4992393;28;20205;-35
2023/09/08 10:08:05;;;;;;;0.30;0.30;;;25.80;55.20;;;26.30;40.50;95453.28;4993134;28;20315;-33
2023/09/08 10:10:34;;;;;;;0.50;0.50;;;25.80;55.20;;;26.31;40.48;95460.28;4992923;28;20196;-35
2023/09/08 10:13:07;;;;;;;0.30;0.30;;;25.80;55.20;;;26.33;40.54;95451.94;4992867;28;20692;-35
2023/09/08 10:15:34;;;;;;;0.43;0.43;;;25.90;55.20;;;26.33;40.25;95452.75;4992159;28;20193;-36
2023/09/08 10:18:05;;;;;;;0.40;0.40;;;25.90;55.30;;;26.35;40.19;95442.53;4991826;28;20232;-34
2023/09/08 10:20:34;;;;;;;0.40;0.40;;;25.90;55.20;;;26.37;40.44;95447.63;4992951;28;20198;-32
2023/09/08 10:23:15;;;;;;;0.30;0.30;;;25.90;55.20;;;26.38;40.14;95446.53;4993216;28;20598;-34